Nearby METAR Reports

 

KHOT - Hot Springs, Arkansas, USA
Distance from station: W 8mi, 14km
Updated: 01/21/2021 2:48am
Mist, Overcast
Mist, Overcast
 Wind from WSW
Wind: WSW 3 mph , 6 km/h
Temperature: 45°F , 7°C
Dew Point: 43°F , 6°C
Humidity: 93%
Barometer: 30.03 inHg , 1016.9 hPa
Summary: Mist
Clouds: Overcast
Visibility: 2 1/2 miles , 4 km
Cloud details: Overcast 300 ft
2021/01/21 08:48 KHOT 210848Z AUTO 25003KT 2 1/2SM BR OVC003 07/06 A3003 RMK AO2
KMWT - Mount Ida, Arkansas, USA
Distance from station: W 36mi, 58km
Updated: 01/21/2021 1:53am
Overcast
Overcast
 Wind from N
Wind: N 3 mph , 6 km/h
Temperature: 45°F , 7°C
Dew Point: 43°F , 6°C
Humidity: 93%
Barometer: 30.01 inHg , 1016.3 hPa
Clouds: Overcast
Visibility: 10 miles , 16 km
Cloud details: Overcast 500 ft
2021/01/21 07:53 KMWT 210753Z AUTO 35003KT 10SM OVC005 07/06 A3001 RMK AO2 SLP169 T00720061
 
KLIT - Little Rock, Arkansas, USA
Distance from station: ENE 45mi, 73km
Updated: 01/21/2021 2:44am
Light drizzle, Mist, Overcast
Light drizzle, Mist, Overcast
 Wind from W
Wind: W 7 mph , 11 km/h
Temperature: 45°F , 7°C
Wind Chill: 41°F , 5°C
Dew Point: 43°F , 6°C
Humidity: 93%
Barometer: 30.04 inHg , 1017.3 hPa
Summary: Light drizzle, Mist
Clouds: Overcast
Visibility: 2 1/2 miles , 4 km
Cloud details: Overcast 500 ft
2021/01/21 08:44 KLIT 210844Z 27006KT 2 1/2SM -DZ BR OVC005 07/06 A3004 RMK AO2 DZB43 P0000 T00720061
KLRF - Little Rock Afb, Arkansas, USA
Distance from station: NE 56mi, 89km
Updated: 01/20/2021 12:56pm
NOT Current
Overcast
Overcast
 Wind from SSE
Wind: SSE 8 mph , 13 km/h
Temperature: 48°F , 9°C
Wind Chill: 44°F , 7°C
Dew Point: 27°F , -3°C
Humidity: 43%
Barometer: 30.30 inHg , 1026.1 hPa
Clouds: Overcast
Visibility: 10 miles , 16 km
Cloud details: Mostly cloudy 10000 ft
Overcast 20000 ft
2021/01/20 18:56 KLRF 201856Z AUTO 15007KT 10SM BKN100 OVC200 09/M03 A3030 RMK AO2 SLP265 T00921034